sensor_id;sensor_type;location;lat;lon;timestamp;temperature;humidity
9810;DHT22;4944;52.514;13.192;2022-11-20T00:01:05;0.00;99.90
9810;DHT22;4944;52.514;13.192;2022-11-20T00:03:32;0.00;99.90
9810;DHT22;4944;52.514;13.192;2022-11-20T00:06:00;0.00;99.90
9810;DHT22;4944;52.514;13.192;2022-11-20T00:08:27;0.10;99.90
9810;DHT22;4944;52.514;13.192;2022-11-20T00:10:55;0.00;99.90
9810;DHT22;4944;52.514;13.192;2022-11-20T00:13:22;0.00;99.90
9810;DHT22;4944;52.514;13.192;2022-11-20T00:15:56;0.00;99.90
9810;DHT22;4944;52.514;13.192;2022-11-20T00:18:22;0.00;99.90
9810;DHT22;4944;52.514;13.192;2022-11-20T00:20:49;0.10;99.90
9810;DHT22;4944;52.514;13.192;2022-11-20T00:23:16;0.10;99.90
9810;DHT22;4944;52.514;13.192;2022-11-20T00:25:43;0.20;99.90
9810;DHT22;4944;52.514;13.192;2022-11-20T00:28:11;0.10;99.90
9810;DHT22;4944;52.514;13.192;2022-11-20T00:30:38;0.10;99.90
9810;DHT22;4944;52.514;13.192;2022-11-20T00:33:05;0.10;99.90
9810;DHT22;4944;52.514;13.192;2022-11-20T00:35:32;0.10;99.90
9810;DHT22;4944;52.514;13.192;2022-11-20T00:37:59;0.10;99.90
9810;DHT22;4944;52.514;13.192;2022-11-20T00:40:26;0.10;99.90
9810;DHT22;4944;52.514;13.192;2022-11-20T00:42:52;0.00;99.90
9810;DHT22;4944;52.514;13.192;2022-11-20T00:45:21;0.00;99.90
9810;DHT22;4944;52.514;13.192;2022-11-20T00:47:48;0.00;99.90
9810;DHT22;4944;52.514;13.192;2022-11-20T00:50:14;0.00;99.90
9810;DHT22;4944;52.514;13.192;2022-11-20T00:52:41;0.00;99.90
9810;DHT22;4944;52.514;13.192;2022-11-20T00:55:08;0.00;99.90
9810;DHT22;4944;52.514;13.192;2022-11-20T00:57:35;0.00;99.90
9810;DHT22;4944;52.514;13.192;2022-11-20T01:00:03;0.00;99.90
9810;DHT22;4944;52.514;13.192;2022-11-20T01:02:31;0.00;99.90
9810;DHT22;4944;52.514;13.192;2022-11-20T01:04:58;0.00;99.90
9810;DHT22;4944;52.514;13.192;2022-11-20T01:07:25;0.00;99.90
9810;DHT22;4944;52.514;13.192;2022-11-20T01:09:52;0.00;99.90
9810;DHT22;4944;52.514;13.192;2022-11-20T01:12:18;0.00;99.90
9810;DHT22;4944;52.514;13.192;2022-11-20T01:14:47;0.00;99.90
9810;DHT22;4944;52.514;13.192;2022-11-20T01:17:14;-0.10;99.90
9810;DHT22;4944;52.514;13.192;2022-11-20T01:19:42;0.00;99.90
9810;DHT22;4944;52.514;13.192;2022-11-20T01:22:09;0.00;99.90
9810;DHT22;4944;52.514;13.192;2022-11-20T01:24:36;0.00;99.90
9810;DHT22;4944;52.514;13.192;2022-11-20T01:27:03;0.00;99.90
9810;DHT22;4944;52.514;13.192;2022-11-20T01:29:30;0.00;99.90
9810;DHT22;4944;52.514;13.192;2022-11-20T01:31:57;0.00;99.90
9810;DHT22;4944;52.514;13.192;2022-11-20T01:34:23;-0.10;99.90
9810;DHT22;4944;52.514;13.192;2022-11-20T01:36:52;0.00;99.90
9810;DHT22;4944;52.514;13.192;2022-11-20T01:39:21;0.00;99.90
9810;DHT22;4944;52.514;13.192;2022-11-20T01:41:49;0.00;99.90
9810;DHT22;4944;52.514;13.192;2022-11-20T01:44:48;0.00;99.90
9810;DHT22;4944;52.514;13.192;2022-11-20T01:47:19;-0.10;99.90
9810;DHT22;4944;52.514;13.192;2022-11-20T01:49:50;-0.10;99.90
9810;DHT22;4944;52.514;13.192;2022-11-20T01:52:22;-0.10;99.90
9810;DHT22;4944;52.514;13.192;2022-11-20T01:54:52;-0.10;99.90
9810;DHT22;4944;52.514;13.192;2022-11-20T01:57:22;-0.10;99.90
9810;DHT22;4944;52.514;13.192;2022-11-20T01:59:53;-0.20;99.90
9810;DHT22;4944;52.514;13.192;2022-11-20T02:02:21;-0.20;99.90
9810;DHT22;4944;52.514;13.192;2022-11-20T02:04:50;-0.20;99.90
9810;DHT22;4944;52.514;13.192;2022-11-20T02:07:20;-0.20;99.90
9810;DHT22;4944;52.514;13.192;2022-11-20T02:09:47;-0.20;99.90
9810;DHT22;4944;52.514;13.192;2022-11-20T02:12:14;-0.20;99.90
9810;DHT22;4944;52.514;13.192;2022-11-20T02:14:56;-0.20;99.90
9810;DHT22;4944;52.514;13.192;2022-11-20T02:17:23;-0.20;99.90
9810;DHT22;4944;52.514;13.192;2022-11-20T02:19:51;-0.20;99.90
9810;DHT22;4944;52.514;13.192;2022-11-20T02:22:21;-0.20;99.90
9810;DHT22;4944;52.514;13.192;2022-11-20T02:24:51;-0.20;99.90
9810;DHT22;4944;52.514;13.192;2022-11-20T02:27:18;-0.30;99.90
9810;DHT22;4944;52.514;13.192;2022-11-20T02:29:49;-0.30;99.90
9810;DHT22;4944;52.514;13.192;2022-11-20T02:32:19;-0.30;99.90
9810;DHT22;4944;52.514;13.192;2022-11-20T02:34:46;-0.30;99.90
9810;DHT22;4944;52.514;13.192;2022-11-20T02:37:14;-0.30;99.90
9810;DHT22;4944;52.514;13.192;2022-11-20T02:39:42;-0.30;99.90
9810;DHT22;4944;52.514;13.192;2022-11-20T02:42:12;-0.20;99.90
9810;DHT22;4944;52.514;13.192;2022-11-20T02:44:39;-0.20;99.90
9810;DHT22;4944;52.514;13.192;2022-11-20T02:47:06;-0.20;99.90
9810;DHT22;4944;52.514;13.192;2022-11-20T02:49:33;-0.30;99.90
9810;DHT22;4944;52.514;13.192;2022-11-20T02:52:00;-0.30;99.90
9810;DHT22;4944;52.514;13.192;2022-11-20T02:54:27;-0.30;99.90
9810;DHT22;4944;52.514;13.192;2022-11-20T02:56:54;-0.30;99.90
9810;DHT22;4944;52.514;13.192;2022-11-20T02:59:22;-0.30;99.90
9810;DHT22;4944;52.514;13.192;2022-11-20T03:01:49;-0.30;99.90
9810;DHT22;4944;52.514;13.192;2022-11-20T03:04:16;-0.30;99.90
9810;DHT22;4944;52.514;13.192;2022-11-20T03:06:43;-0.30;99.90
9810;DHT22;4944;52.514;13.192;2022-11-20T03:09:11;-0.30;99.90
9810;DHT22;4944;52.514;13.192;2022-11-20T03:11:38;-0.30;99.90
9810;DHT22;4944;52.514;13.192;2022-11-20T03:14:05;-0.30;99.90
9810;DHT22;4944;52.514;13.192;2022-11-20T03:16:34;-0.30;99.90
9810;DHT22;4944;52.514;13.192;2022-11-20T03:19:00;-0.30;99.90
9810;DHT22;4944;52.514;13.192;2022-11-20T03:21:27;-0.30;99.90
9810;DHT22;4944;52.514;13.192;2022-11-20T03:23:54;-0.30;99.90
9810;DHT22;4944;52.514;13.192;2022-11-20T03:26:23;-0.30;99.90
9810;DHT22;4944;52.514;13.192;2022-11-20T03:28:51;-0.30;99.90
9810;DHT22;4944;52.514;13.192;2022-11-20T03:31:20;-0.30;99.90
9810;DHT22;4944;52.514;13.192;2022-11-20T03:33:49;-0.30;99.90
9810;DHT22;4944;52.514;13.192;2022-11-20T03:36:18;-0.30;99.90
9810;DHT22;4944;52.514;13.192;2022-11-20T03:38:45;-0.30;99.90
9810;DHT22;4944;52.514;13.192;2022-11-20T03:41:14;-0.30;99.90
9810;DHT22;4944;52.514;13.192;2022-11-20T03:43:41;-0.30;99.90
9810;DHT22;4944;52.514;13.192;2022-11-20T03:46:08;-0.30;99.90
9810;DHT22;4944;52.514;13.192;2022-11-20T03:48:35;-0.30;99.90
9810;DHT22;4944;52.514;13.192;2022-11-20T03:51:11;-0.30;99.90
9810;DHT22;4944;52.514;13.192;2022-11-20T03:53:38;-0.30;99.90
9810;DHT22;4944;52.514;13.192;2022-11-20T03:56:07;-0.30;99.90
9810;DHT22;4944;52.514;13.192;2022-11-20T03:58:34;-0.30;99.90
9810;DHT22;4944;52.514;13.192;2022-11-20T04:01:06;-0.30;99.90
9810;DHT22;4944;52.514;13.192;2022-11-20T04:03:34;-0.30;99.90
9810;DHT22;4944;52.514;13.192;2022-11-20T04:06:05;-0.20;99.90
9810;DHT22;4944;52.514;13.192;2022-11-20T04:08:34;-0.20;99.90
9810;DHT22;4944;52.514;13.192;2022-11-20T04:11:11;-0.20;99.90
9810;DHT22;4944;52.514;13.192;2022-11-20T04:13:39;-0.10;99.90
9810;DHT22;4944;52.514;13.192;2022-11-20T04:16:07;-0.10;99.90
9810;DHT22;4944;52.514;13.192;2022-11-20T04:18:34;-0.10;99.90
9810;DHT22;4944;52.514;13.192;2022-11-20T04:21:01;0.00;99.90
9810;DHT22;4944;52.514;13.192;2022-11-20T04:23:28;0.00;99.90
9810;DHT22;4944;52.514;13.192;2022-11-20T04:26:03;-0.10;99.90
9810;DHT22;4944;52.514;13.192;2022-11-20T04:28:30;-0.10;99.90
9810;DHT22;4944;52.514;13.192;2022-11-20T04:31:04;-0.20;99.90
9810;DHT22;4944;52.514;13.192;2022-11-20T04:33:32;-0.20;99.90
9810;DHT22;4944;52.514;13.192;2022-11-20T04:36:02;-0.20;99.90
9810;DHT22;4944;52.514;13.192;2022-11-20T04:38:30;-0.20;99.90
9810;DHT22;4944;52.514;13.192;2022-11-20T04:40:58;-0.20;99.90
9810;DHT22;4944;52.514;13.192;2022-11-20T04:43:26;-0.20;99.90
9810;DHT22;4944;52.514;13.192;2022-11-20T04:45:54;-0.20;99.90
9810;DHT22;4944;52.514;13.192;2022-11-20T04:48:21;-0.20;99.90
9810;DHT22;4944;52.514;13.192;2022-11-20T04:50:48;-0.20;99.90
9810;DHT22;4944;52.514;13.192;2022-11-20T04:53:15;-0.20;99.90
9810;DHT22;4944;52.514;13.192;2022-11-20T04:55:42;-0.20;99.90
9810;DHT22;4944;52.514;13.192;2022-11-20T04:58:09;-0.20;99.90
9810;DHT22;4944;52.514;13.192;2022-11-20T05:00:37;-0.20;99.90
9810;DHT22;4944;52.514;13.192;2022-11-20T05:03:04;-0.20;99.90
9810;DHT22;4944;52.514;13.192;2022-11-20T05:05:32;-0.20;99.90
9810;DHT22;4944;52.514;13.192;2022-11-20T05:07:59;-0.10;99.90
9810;DHT22;4944;52.514;13.192;2022-11-20T05:10:27;-0.10;99.90
9810;DHT22;4944;52.514;13.192;2022-11-20T05:12:54;-0.10;99.90
9810;DHT22;4944;52.514;13.192;2022-11-20T05:15:21;-0.10;99.90
9810;DHT22;4944;52.514;13.192;2022-11-20T05:17:50;-0.10;99.90
9810;DHT22;4944;52.514;13.192;2022-11-20T05:20:17;-0.10;99.90
9810;DHT22;4944;52.514;13.192;2022-11-20T05:22:44;-0.10;99.90
9810;DHT22;4944;52.514;13.192;2022-11-20T05:25:12;-0.10;99.90
9810;DHT22;4944;52.514;13.192;2022-11-20T05:27:39;-0.10;99.90
9810;DHT22;4944;52.514;13.192;2022-11-20T05:30:07;-0.10;99.90
9810;DHT22;4944;52.514;13.192;2022-11-20T05:32:34;-0.10;99.90
9810;DHT22;4944;52.514;13.192;2022-11-20T05:35:02;-0.10;99.90
9810;DHT22;4944;52.514;13.192;2022-11-20T05:37:29;0.00;99.90
9810;DHT22;4944;52.514;13.192;2022-11-20T05:39:56;-0.10;99.90
9810;DHT22;4944;52.514;13.192;2022-11-20T05:42:23;0.00;99.90
9810;DHT22;4944;52.514;13.192;2022-11-20T05:45:00;-0.10;99.90
9810;DHT22;4944;52.514;13.192;2022-11-20T05:47:28;-0.10;99.90
9810;DHT22;4944;52.514;13.192;2022-11-20T05:49:57;0.00;99.90
9810;DHT22;4944;52.514;13.192;2022-11-20T05:52:28;0.00;99.90
9810;DHT22;4944;52.514;13.192;2022-11-20T05:54:55;0.00;99.90
9810;DHT22;4944;52.514;13.192;2022-11-20T05:57:22;0.00;99.90
9810;DHT22;4944;52.514;13.192;2022-11-20T05:59:49;0.00;99.90
9810;DHT22;4944;52.514;13.192;2022-11-20T06:02:16;0.00;99.90
9810;DHT22;4944;52.514;13.192;2022-11-20T06:04:42;0.00;99.90
9810;DHT22;4944;52.514;13.192;2022-11-20T06:07:09;0.00;99.90
9810;DHT22;4944;52.514;13.192;2022-11-20T06:09:38;0.00;99.90
9810;DHT22;4944;52.514;13.192;2022-11-20T06:12:05;0.00;99.90
9810;DHT22;4944;52.514;13.192;2022-11-20T06:14:32;0.00;99.90
9810;DHT22;4944;52.514;13.192;2022-11-20T06:16:59;0.00;99.90
9810;DHT22;4944;52.514;13.192;2022-11-20T06:19:26;0.00;99.90
9810;DHT22;4944;52.514;13.192;2022-11-20T06:21:53;0.10;99.90
9810;DHT22;4944;52.514;13.192;2022-11-20T06:24:20;0.10;99.90
9810;DHT22;4944;52.514;13.192;2022-11-20T06:26:48;0.00;99.90
9810;DHT22;4944;52.514;13.192;2022-11-20T06:29:15;0.20;99.90
9810;DHT22;4944;52.514;13.192;2022-11-20T06:31:42;0.20;99.90
9810;DHT22;4944;52.514;13.192;2022-11-20T06:34:10;0.20;99.90
9810;DHT22;4944;52.514;13.192;2022-11-20T06:36:36;0.20;99.90
9810;DHT22;4944;52.514;13.192;2022-11-20T06:39:03;0.20;99.90
9810;DHT22;4944;52.514;13.192;2022-11-20T06:41:30;0.30;99.90
9810;DHT22;4944;52.514;13.192;2022-11-20T06:43:58;0.30;99.90
9810;DHT22;4944;52.514;13.192;2022-11-20T06:46:25;0.20;99.90
9810;DHT22;4944;52.514;13.192;2022-11-20T06:48:52;0.20;99.90
9810;DHT22;4944;52.514;13.192;2022-11-20T06:51:20;0.10;99.90
9810;DHT22;4944;52.514;13.192;2022-11-20T06:53:47;0.20;99.90
9810;DHT22;4944;52.514;13.192;2022-11-20T06:56:14;0.20;99.90
9810;DHT22;4944;52.514;13.192;2022-11-20T06:58:40;0.20;99.90
9810;DHT22;4944;52.514;13.192;2022-11-20T07:01:12;0.10;99.90
9810;DHT22;4944;52.514;13.192;2022-11-20T07:03:39;0.10;99.90
9810;DHT22;4944;52.514;13.192;2022-11-20T07:06:07;0.20;99.90
9810;DHT22;4944;52.514;13.192;2022-11-20T07:08:34;0.20;99.90
9810;DHT22;4944;52.514;13.192;2022-11-20T07:11:03;0.20;99.90
9810;DHT22;4944;52.514;13.192;2022-11-20T07:13:30;0.20;99.90
9810;DHT22;4944;52.514;13.192;2022-11-20T07:15:59;0.20;99.90
9810;DHT22;4944;52.514;13.192;2022-11-20T07:18:28;0.20;99.90
9810;DHT22;4944;52.514;13.192;2022-11-20T07:20:55;0.20;99.90
9810;DHT22;4944;52.514;13.192;2022-11-20T07:23:22;0.20;99.90
9810;DHT22;4944;52.514;13.192;2022-11-20T07:25:49;0.20;99.90
9810;DHT22;4944;52.514;13.192;2022-11-20T07:28:16;0.20;99.90
9810;DHT22;4944;52.514;13.192;2022-11-20T07:30:42;0.20;99.90
9810;DHT22;4944;52.514;13.192;2022-11-20T07:33:09;0.20;99.90
9810;DHT22;4944;52.514;13.192;2022-11-20T07:35:38;0.20;99.90
9810;DHT22;4944;52.514;13.192;2022-11-20T07:38:05;0.20;99.90
9810;DHT22;4944;52.514;13.192;2022-11-20T07:40:31;0.20;99.90
9810;DHT22;4944;52.514;13.192;2022-11-20T07:42:58;0.20;99.90
9810;DHT22;4944;52.514;13.192;2022-11-20T07:45:25;0.20;99.90
9810;DHT22;4944;52.514;13.192;2022-11-20T07:47:52;0.20;99.90
9810;DHT22;4944;52.514;13.192;2022-11-20T07:50:20;0.30;99.90
9810;DHT22;4944;52.514;13.192;2022-11-20T07:52:48;0.30;99.90
9810;DHT22;4944;52.514;13.192;2022-11-20T07:55:16;0.30;99.90
9810;DHT22;4944;52.514;13.192;2022-11-20T07:57:43;0.30;99.90
9810;DHT22;4944;52.514;13.192;2022-11-20T08:00:11;0.30;99.90
9810;DHT22;4944;52.514;13.192;2022-11-20T08:02:39;0.40;99.90
9810;DHT22;4944;52.514;13.192;2022-11-20T08:05:06;0.40;99.90
9810;DHT22;4944;52.514;13.192;2022-11-20T08:07:37;0.30;99.90
9810;DHT22;4944;52.514;13.192;2022-11-20T08:10:06;0.30;99.90
9810;DHT22;4944;52.514;13.192;2022-11-20T08:12:33;0.30;99.90
9810;DHT22;4944;52.514;13.192;2022-11-20T08:15:18;0.30;99.90
9810;DHT22;4944;52.514;13.192;2022-11-20T08:17:45;0.20;99.90
9810;DHT22;4944;52.514;13.192;2022-11-20T08:20:12;0.20;99.90
9810;DHT22;4944;52.514;13.192;2022-11-20T08:22:39;0.20;99.90
9810;DHT22;4944;52.514;13.192;2022-11-20T08:25:09;0.20;99.90
9810;DHT22;4944;52.514;13.192;2022-11-20T08:27:36;0.20;99.90
9810;DHT22;4944;52.514;13.192;2022-11-20T08:30:04;0.20;99.90
9810;DHT22;4944;52.514;13.192;2022-11-20T08:32:31;0.30;99.90
9810;DHT22;4944;52.514;13.192;2022-11-20T08:35:00;0.30;99.90
9810;DHT22;4944;52.514;13.192;2022-11-20T08:37:27;0.30;99.90
9810;DHT22;4944;52.514;13.192;2022-11-20T08:39:54;0.30;99.90
9810;DHT22;4944;52.514;13.192;2022-11-20T08:42:23;0.30;99.90
9810;DHT22;4944;52.514;13.192;2022-11-20T08:44:50;0.30;99.90
9810;DHT22;4944;52.514;13.192;2022-11-20T08:47:17;0.30;99.90
9810;DHT22;4944;52.514;13.192;2022-11-20T08:49:44;0.30;99.90
9810;DHT22;4944;52.514;13.192;2022-11-20T08:52:11;0.30;99.90
9810;DHT22;4944;52.514;13.192;2022-11-20T08:54:37;0.30;99.90
9810;DHT22;4944;52.514;13.192;2022-11-20T08:57:04;0.40;99.90
9810;DHT22;4944;52.514;13.192;2022-11-20T08:59:33;0.40;99.90
9810;DHT22;4944;52.514;13.192;2022-11-20T09:01:59;0.40;99.90
9810;DHT22;4944;52.514;13.192;2022-11-20T09:04:26;0.40;99.90
9810;DHT22;4944;52.514;13.192;2022-11-20T09:06:53;0.40;99.90
9810;DHT22;4944;52.514;13.192;2022-11-20T09:09:20;0.40;99.90
9810;DHT22;4944;52.514;13.192;2022-11-20T09:11:47;0.40;99.90
9810;DHT22;4944;52.514;13.192;2022-11-20T09:14:15;0.40;99.90
9810;DHT22;4944;52.514;13.192;2022-11-20T09:16:44;0.40;99.90
9810;DHT22;4944;52.514;13.192;2022-11-20T09:19:12;0.40;99.90
9810;DHT22;4944;52.514;13.192;2022-11-20T09:21:39;0.40;99.90
9810;DHT22;4944;52.514;13.192;2022-11-20T09:24:06;0.40;99.90
9810;DHT22;4944;52.514;13.192;2022-11-20T09:26:33;0.40;99.90
9810;DHT22;4944;52.514;13.192;2022-11-20T09:29:00;0.40;99.90
9810;DHT22;4944;52.514;13.192;2022-11-20T09:31:27;0.40;99.90
9810;DHT22;4944;52.514;13.192;2022-11-20T09:33:55;0.40;99.90
9810;DHT22;4944;52.514;13.192;2022-11-20T09:36:22;0.50;99.90
9810;DHT22;4944;52.514;13.192;2022-11-20T09:38:48;0.50;99.90
9810;DHT22;4944;52.514;13.192;2022-11-20T09:41:37;0.60;99.90
9810;DHT22;4944;52.514;13.192;2022-11-20T09:44:16;0.70;99.90
9810;DHT22;4944;52.514;13.192;2022-11-20T09:46:49;0.60;99.90
9810;DHT22;4944;52.514;13.192;2022-11-20T09:49:26;0.60;99.90
9810;DHT22;4944;52.514;13.192;2022-11-20T09:52:00;0.60;99.90
9810;DHT22;4944;52.514;13.192;2022-11-20T09:54:30;0.60;99.90
9810;DHT22;4944;52.514;13.192;2022-11-20T09:57:00;0.60;99.90
9810;DHT22;4944;52.514;13.192;2022-11-20T09:59:35;0.60;99.90
9810;DHT22;4944;52.514;13.192;2022-11-20T10:02:12;0.60;99.90
9810;DHT22;4944;52.514;13.192;2022-11-20T10:04:46;0.50;99.90
9810;DHT22;4944;52.514;13.192;2022-11-20T10:07:17;0.60;99.90
9810;DHT22;4944;52.514;13.192;2022-11-20T10:09:51;0.60;99.90
9810;DHT22;4944;52.514;13.192;2022-11-20T10:12:27;0.50;99.90
9810;DHT22;4944;52.514;13.192;2022-11-20T10:15:02;0.50;99.90
9810;DHT22;4944;52.514;13.192;2022-11-20T10:17:46;0.60;99.90
9810;DHT22;4944;52.514;13.192;2022-11-20T10:20:20;0.60;99.90
9810;DHT22;4944;52.514;13.192;2022-11-20T10:23:05;0.60;99.90
9810;DHT22;4944;52.514;13.192;2022-11-20T10:25:39;0.60;99.90
9810;DHT22;4944;52.514;13.192;2022-11-20T10:28:16;0.70;99.90
9810;DHT22;4944;52.514;13.192;2022-11-20T10:30:50;0.70;99.90
9810;DHT22;4944;52.514;13.192;2022-11-20T10:33:22;0.60;99.90
9810;DHT22;4944;52.514;13.192;2022-11-20T10:35:54;0.70;99.90
9810;DHT22;4944;52.514;13.192;2022-11-20T10:38:26;0.70;99.90
9810;DHT22;4944;52.514;13.192;2022-11-20T10:41:00;0.70;99.90
9810;DHT22;4944;52.514;13.192;2022-11-20T10:43:42;0.80;99.90
9810;DHT22;4944;52.514;13.192;2022-11-20T10:46:14;0.80;99.90
9810;DHT22;4944;52.514;13.192;2022-11-20T10:48:43;0.80;99.90
9810;DHT22;4944;52.514;13.192;2022-11-20T10:51:31;0.80;99.90
9810;DHT22;4944;52.514;13.192;2022-11-20T10:54:12;0.80;99.90
9810;DHT22;4944;52.514;13.192;2022-11-20T10:56:46;0.90;99.90
9810;DHT22;4944;52.514;13.192;2022-11-20T10:59:37;1.00;99.90
9810;DHT22;4944;52.514;13.192;2022-11-20T11:02:19;1.00;99.90
9810;DHT22;4944;52.514;13.192;2022-11-20T11:04:47;1.00;99.90
9810;DHT22;4944;52.514;13.192;2022-11-20T11:07:20;1.00;99.90
9810;DHT22;4944;52.514;13.192;2022-11-20T11:09:50;1.00;99.90
9810;DHT22;4944;52.514;13.192;2022-11-20T11:12:17;1.10;99.90
9810;DHT22;4944;52.514;13.192;2022-11-20T11:14:48;1.00;99.90
9810;DHT22;4944;52.514;13.192;2022-11-20T11:17:25;1.10;99.90
9810;DHT22;4944;52.514;13.192;2022-11-20T11:20:00;1.10;99.90
9810;DHT22;4944;52.514;13.192;2022-11-20T11:22:31;1.00;99.90
9810;DHT22;4944;52.514;13.192;2022-11-20T11:24:59;1.00;99.90
9810;DHT22;4944;52.514;13.192;2022-11-20T11:27:26;1.00;99.90
9810;DHT22;4944;52.514;13.192;2022-11-20T11:30:02;1.00;99.90
9810;DHT22;4944;52.514;13.192;2022-11-20T11:32:30;1.00;99.90
9810;DHT22;4944;52.514;13.192;2022-11-20T11:35:01;0.90;99.90
9810;DHT22;4944;52.514;13.192;2022-11-20T11:37:33;0.80;99.90
9810;DHT22;4944;52.514;13.192;2022-11-20T11:40:01;0.80;99.90
9810;DHT22;4944;52.514;13.192;2022-11-20T11:42:28;0.90;99.90
9810;DHT22;4944;52.514;13.192;2022-11-20T11:44:57;0.80;99.90
9810;DHT22;4944;52.514;13.192;2022-11-20T11:47:36;0.80;99.90
9810;DHT22;4944;52.514;13.192;2022-11-20T11:50:16;0.80;99.90
9810;DHT22;4944;52.514;13.192;2022-11-20T11:52:48;0.80;99.90
9810;DHT22;4944;52.514;13.192;2022-11-20T11:55:26;0.90;99.90
9810;DHT22;4944;52.514;13.192;2022-11-20T11:57:57;0.80;99.90
9810;DHT22;4944;52.514;13.192;2022-11-20T12:00:28;0.80;99.90
9810;DHT22;4944;52.514;13.192;2022-11-20T12:03:03;0.90;99.90
9810;DHT22;4944;52.514;13.192;2022-11-20T12:05:36;0.90;99.90
9810;DHT22;4944;52.514;13.192;2022-11-20T12:08:14;1.00;99.90
9810;DHT22;4944;52.514;13.192;2022-11-20T12:10:47;1.10;99.90
9810;DHT22;4944;52.514;13.192;2022-11-20T12:13:36;1.10;99.90
9810;DHT22;4944;52.514;13.192;2022-11-20T12:16:11;1.20;99.90
9810;DHT22;4944;52.514;13.192;2022-11-20T12:18:40;1.20;99.90
9810;DHT22;4944;52.514;13.192;2022-11-20T12:21:19;1.20;99.90
9810;DHT22;4944;52.514;13.192;2022-11-20T12:24:09;1.20;99.90
9810;DHT22;4944;52.514;13.192;2022-11-20T12:26:49;1.20;99.90
9810;DHT22;4944;52.514;13.192;2022-11-20T12:29:26;1.20;99.90
9810;DHT22;4944;52.514;13.192;2022-11-20T12:32:03;1.20;99.90
9810;DHT22;4944;52.514;13.192;2022-11-20T12:34:52;1.20;99.90
9810;DHT22;4944;52.514;13.192;2022-11-20T12:37:33;1.10;99.90
9810;DHT22;4944;52.514;13.192;2022-11-20T12:40:22;1.10;99.90
9810;DHT22;4944;52.514;13.192;2022-11-20T12:42:58;1.10;99.90
9810;DHT22;4944;52.514;13.192;2022-11-20T12:46:03;1.10;99.90
9810;DHT22;4944;52.514;13.192;2022-11-20T12:48:41;1.10;99.90
9810;DHT22;4944;52.514;13.192;2022-11-20T12:57:01;1.20;99.90
9810;DHT22;4944;52.514;13.192;2022-11-20T12:59:55;1.10;99.90
9810;DHT22;4944;52.514;13.192;2022-11-20T13:02:33;1.10;99.90
9810;DHT22;4944;52.514;13.192;2022-11-20T13:05:17;1.10;99.90
9810;DHT22;4944;52.514;13.192;2022-11-20T13:07:45;1.10;99.90
9810;DHT22;4944;52.514;13.192;2022-11-20T13:10:18;1.00;99.90
9810;DHT22;4944;52.514;13.192;2022-11-20T13:12:51;1.00;99.90
9810;DHT22;4944;52.514;13.192;2022-11-20T13:15:34;0.90;99.90
9810;DHT22;4944;52.514;13.192;2022-11-20T13:18:04;1.00;99.90
9810;DHT22;4944;52.514;13.192;2022-11-20T13:20:33;1.00;99.90
9810;DHT22;4944;52.514;13.192;2022-11-20T13:23:01;1.00;99.90
9810;DHT22;4944;52.514;13.192;2022-11-20T13:25:29;0.90;99.90
9810;DHT22;4944;52.514;13.192;2022-11-20T13:28:00;0.90;99.90
9810;DHT22;4944;52.514;13.192;2022-11-20T13:30:28;0.90;99.90
9810;DHT22;4944;52.514;13.192;2022-11-20T13:32:57;1.00;99.90
9810;DHT22;4944;52.514;13.192;2022-11-20T13:35:30;0.90;99.90
9810;DHT22;4944;52.514;13.192;2022-11-20T13:38:10;1.00;99.90
9810;DHT22;4944;52.514;13.192;2022-11-20T13:40:39;1.00;99.90
9810;DHT22;4944;52.514;13.192;2022-11-20T13:43:23;1.00;99.90
9810;DHT22;4944;52.514;13.192;2022-11-20T13:46:00;1.00;99.90
9810;DHT22;4944;52.514;13.192;2022-11-20T13:48:31;1.10;99.90
9810;DHT22;4944;52.514;13.192;2022-11-20T13:51:14;1.10;99.90
9810;DHT22;4944;52.514;13.192;2022-11-20T13:54:11;1.10;99.90
9810;DHT22;4944;52.514;13.192;2022-11-20T13:56:50;1.00;99.90
9810;DHT22;4944;52.514;13.192;2022-11-20T13:59:34;0.90;99.90
9810;DHT22;4944;52.514;13.192;2022-11-20T14:02:10;0.90;99.90
9810;DHT22;4944;52.514;13.192;2022-11-20T14:04:42;0.90;99.90
9810;DHT22;4944;52.514;13.192;2022-11-20T14:07:10;0.90;99.90
9810;DHT22;4944;52.514;13.192;2022-11-20T14:09:37;1.00;99.90
9810;DHT22;4944;52.514;13.192;2022-11-20T14:12:14;1.00;99.90
9810;DHT22;4944;52.514;13.192;2022-11-20T14:14:50;1.10;99.90
9810;DHT22;4944;52.514;13.192;2022-11-20T14:17:20;1.10;99.90
9810;DHT22;4944;52.514;13.192;2022-11-20T14:19:47;1.10;99.90
9810;DHT22;4944;52.514;13.192;2022-11-20T14:22:20;1.10;99.90
9810;DHT22;4944;52.514;13.192;2022-11-20T14:24:47;1.10;99.90
9810;DHT22;4944;52.514;13.192;2022-11-20T14:27:16;1.00;99.90
9810;DHT22;4944;52.514;13.192;2022-11-20T14:29:45;1.00;99.90
9810;DHT22;4944;52.514;13.192;2022-11-20T14:32:17;0.90;99.90
9810;DHT22;4944;52.514;13.192;2022-11-20T14:34:46;0.90;99.90
9810;DHT22;4944;52.514;13.192;2022-11-20T14:37:18;1.00;99.90
9810;DHT22;4944;52.514;13.192;2022-11-20T14:39:49;0.90;99.90
9810;DHT22;4944;52.514;13.192;2022-11-20T14:42:19;0.90;99.90
9810;DHT22;4944;52.514;13.192;2022-11-20T14:44:46;0.90;99.90
9810;DHT22;4944;52.514;13.192;2022-11-20T14:47:19;0.90;99.90
9810;DHT22;4944;52.514;13.192;2022-11-20T14:49:47;0.90;99.90
9810;DHT22;4944;52.514;13.192;2022-11-20T14:52:16;0.90;99.90
9810;DHT22;4944;52.514;13.192;2022-11-20T14:54:44;0.90;99.90
9810;DHT22;4944;52.514;13.192;2022-11-20T14:57:22;0.90;99.90
9810;DHT22;4944;52.514;13.192;2022-11-20T14:59:49;0.80;99.90
9810;DHT22;4944;52.514;13.192;2022-11-20T15:02:16;0.80;99.90
9810;DHT22;4944;52.514;13.192;2022-11-20T15:04:48;0.90;99.90
9810;DHT22;4944;52.514;13.192;2022-11-20T15:07:25;0.90;99.90
9810;DHT22;4944;52.514;13.192;2022-11-20T15:10:05;1.00;99.90
9810;DHT22;4944;52.514;13.192;2022-11-20T15:12:34;1.00;99.90
9810;DHT22;4944;52.514;13.192;2022-11-20T15:15:02;0.90;99.90
9810;DHT22;4944;52.514;13.192;2022-11-20T15:17:31;1.00;99.90
9810;DHT22;4944;52.514;13.192;2022-11-20T15:20:00;0.90;99.90
9810;DHT22;4944;52.514;13.192;2022-11-20T15:22:28;0.90;99.90
9810;DHT22;4944;52.514;13.192;2022-11-20T15:24:55;0.90;99.90
9810;DHT22;4944;52.514;13.192;2022-11-20T15:27:22;0.80;99.90
9810;DHT22;4944;52.514;13.192;2022-11-20T15:29:49;0.80;99.90
9810;DHT22;4944;52.514;13.192;2022-11-20T15:32:16;0.80;99.90
9810;DHT22;4944;52.514;13.192;2022-11-20T15:34:43;0.80;99.90
9810;DHT22;4944;52.514;13.192;2022-11-20T15:37:11;0.80;99.90
9810;DHT22;4944;52.514;13.192;2022-11-20T15:39:38;0.80;99.90
9810;DHT22;4944;52.514;13.192;2022-11-20T15:42:05;0.80;99.90
9810;DHT22;4944;52.514;13.192;2022-11-20T15:44:32;0.80;99.90
9810;DHT22;4944;52.514;13.192;2022-11-20T15:46:59;0.70;99.90
9810;DHT22;4944;52.514;13.192;2022-11-20T15:49:26;0.70;99.90
9810;DHT22;4944;52.514;13.192;2022-11-20T15:51:52;0.70;99.90
9810;DHT22;4944;52.514;13.192;2022-11-20T15:54:22;0.70;99.90
9810;DHT22;4944;52.514;13.192;2022-11-20T15:56:49;0.80;99.90
9810;DHT22;4944;52.514;13.192;2022-11-20T15:59:17;0.70;99.90
9810;DHT22;4944;52.514;13.192;2022-11-20T16:01:44;0.60;99.90
9810;DHT22;4944;52.514;13.192;2022-11-20T16:04:12;0.60;99.90
9810;DHT22;4944;52.514;13.192;2022-11-20T16:06:39;0.60;99.90
9810;DHT22;4944;52.514;13.192;2022-11-20T16:09:06;0.50;99.90
9810;DHT22;4944;52.514;13.192;2022-11-20T16:11:35;0.40;99.90
9810;DHT22;4944;52.514;13.192;2022-11-20T16:14:03;0.40;99.90
9810;DHT22;4944;52.514;13.192;2022-11-20T16:16:47;0.30;99.90
9810;DHT22;4944;52.514;13.192;2022-11-20T16:19:14;0.40;99.90
9810;DHT22;4944;52.514;13.192;2022-11-20T16:21:42;0.30;99.90